Flight Track Log - Related Links

Times and Time Zones

All times are in EDT time to prevent confusion due to time zone crossing. See the CJT574 flight status page for this flight to view local times or setup timezone preferences in your user account.

Time Position Orientation Groundspeed Altitude Reporting Facility
EDT Latitude Longitude Course Direction KTS MPH feet Rate Location/Type
Fri 01:47:46 AM 49.9167 -97.2333 North 160 184 1,400  Level Winnipeg Center
Fri 01:48:46 AM 49.9500 -97.2000 33° Northeast 140 161 3,400 1,450 Climbing Winnipeg Center
Fri 01:49:46 AM 50.0000 -97.2000 360° North 190 219 4,300 1,300 Climbing Winnipeg Center
Fri 01:50:46 AM 49.9833 -97.1000 104° East 270 311 6,000 2,150 Climbing Winnipeg Center
Fri 01:51:46 AM 49.9500 -97.0000 117° Southeast 290 334 8,600 2,300 Climbing Winnipeg Center
Fri 01:52:46 AM 49.9167 -96.8833 114° Southeast 300 345 10,600 1,550 Climbing Winnipeg Center
Fri 01:53:46 AM 49.8833 -96.7500 111° Southeast 340 391 11,700 1,250 Climbing Winnipeg Center
Fri 01:54:46 AM 49.8333 -96.6000 117° Southeast 390 449 13,100 1,500 Climbing Winnipeg Center
Fri 01:55:46 AM 49.8000 -96.4500 109° East 400 460 14,700 1,750 Climbing Winnipeg Center
Fri 01:56:46 AM 49.7500 -96.2667 113° Southeast 410 472 16,600 1,800 Climbing Winnipeg Center
Fri 01:57:46 AM 49.7000 -96.1167 117° Southeast 420 483 18,300 1,650 Climbing Winnipeg Center
Fri 01:58:46 AM 49.6333 -95.9333 119° Southeast 430 495 19,900 1,450 Climbing Winnipeg Center
Fri 01:59:46 AM 49.5833 -95.7833 117° Southeast 440 506 21,200 1,300 Climbing Winnipeg Center
Fri 02:00:46 AM 49.5333 -95.6000 113° Southeast 450 518 22,500 1,300 Climbing Winnipeg Center
Fri 02:01:46 AM 49.4833 -95.4167 113° Southeast 450 518 23,800 1,200 Climbing Winnipeg Center
Fri 02:02:46 AM 49.4333 -95.2500 115° Southeast 460 529 24,900 1,200 Climbing Winnipeg Center
Fri 02:03:46 AM 49.3833 -95.0667 113° Southeast 470 541 26,200 1,300 Climbing Winnipeg Center
Fri 02:04:46 AM 49.3167 -94.8667 117° Southeast 470 541 27,500 1,200 Climbing Winnipeg Center
Fri 02:05:46 AM 49.2667 -94.6833 113° Southeast 480 552 28,600 1,200 Climbing Winnipeg Center
Fri 02:06:46 AM 49.2000 -94.4833 117° Southeast 480 552 29,900 1,250 Climbing Winnipeg Center
Fri 02:07:46 AM 49.1500 -94.3000 113° Southeast 470 541 31,100 1,100 Climbing Winnipeg Center
Fri 02:08:46 AM 49.0833 -94.1500 124° Southeast 470 541 32,100 800 Climbing Winnipeg Center
Fri 02:09:46 AM 49.0333 -93.9500 111° Southeast 480 552 32,700 450 Climbing Winnipeg Center
Fri 02:10:46 AM 48.9833 -93.7500 111° Southeast 490 564 33,000 150 Climbing Winnipeg Center
Fri 02:11:46 AM 48.9000 -93.5833 127° Southeast 490 564 33,000  Level Winnipeg Center
Fri 02:12:46 AM 48.8500 -93.4000 112° Southeast 490 564 33,000  Level Winnipeg Center
Fri 02:13:46 AM 48.8000 -93.2167 114° Southeast 490 564 33,000  Level Winnipeg Center
Fri 02:14:00 AM 48.7997 -93.2286 114° Southeast  Level FlightAware Approximate
Fri 02:14:46 AM 48.7333 -93.0167 117° Southeast 490 564 33,000  Level Winnipeg Center
Fri 02:15:46 AM 48.6667 -92.8333 119° Southeast 490 564 33,000  Level Winnipeg Center
Fri 02:16:46 AM 48.6000 -92.6333 117° Southeast 490 564 33,000  Level Winnipeg Center
Fri 02:17:46 AM 48.5500 -92.4667 114° Southeast 490 564 33,000  Level Winnipeg Center
Fri 02:18:46 AM 48.5000 -92.2667 111° Southeast 480 552 33,000  Level Winnipeg Center
Fri 02:19:46 AM 48.4167 -92.1000 127° Southeast 480 552 33,000  Level Winnipeg Center
Fri 02:20:46 AM 48.3667 -91.9333 114° Southeast 480 552 33,000  Level Winnipeg Center
Fri 02:21:46 AM 48.3000 -91.7333 117° Southeast 470 541 33,000  Level Winnipeg Center
Fri 02:22:46 AM 48.2500 -91.6000 119° Southeast 470 541 33,000  Level Winnipeg Center
Fri 02:23:46 AM 48.1833 -91.4000 117° Southeast 470 541 33,000  Level Winnipeg Center
Fri 02:24:46 AM 48.1167 -91.2333 121° Southeast 470 541 33,000  Level Winnipeg Center
Fri 02:25:46 AM 48.0667 -91.0667 114° Southeast 470 541 33,000  Level Winnipeg Center
Fri 02:26:46 AM 48.0000 -90.9000 121° Southeast 470 541 33,000  Level Winnipeg Center
Fri 02:27:46 AM 47.9333 -90.7000 116° Southeast 470 541 33,000  Level Winnipeg Center
Fri 02:28:46 AM 47.8667 -90.5333 121° Southeast 480 552 33,000 -67 Level Winnipeg Center
Fri 02:29:16 AM 47.8703 -90.4994 81° East 476 548 32,900  Descending Minneapolis Center
Fri 02:29:46 AM 47.8167 -90.3667 121° Southeast 480 552 33,000 67 Climbing Winnipeg Center
Fri 02:30:46 AM 47.7500 -90.1833 118° Southeast 480 552 33,000  Level Winnipeg Center
Fri 02:31:46 AM 47.6833 -90.0167 121° Southeast 480 552 33,000  Level Winnipeg Center
Fri 02:32:46 AM 47.6333 -89.8500 114° Southeast 480 552 33,000  Level Winnipeg Center
Fri 02:33:29 AM 47.5919 -89.7483 121° Southeast 478 550 33,000  Level Minneapolis Center
Fri 02:34:30 AM 47.5281 -89.5756 119° Southeast 477 549 33,000  Level Minneapolis Center
Fri 02:35:30 AM 47.4631 -89.4069 120° Southeast 475 547 33,000  Level Minneapolis Center
Fri 02:36:30 AM 47.3975 -89.2347 119° Southeast 477 549 33,000  Level Minneapolis Center
Fri 02:37:31 AM 47.3314 -89.0642 120° Southeast 477 549 33,000  Level Minneapolis Center
Fri 02:38:31 AM 47.2656 -88.8942 120° Southeast 475 547 33,000  Level Minneapolis Center
Fri 02:39:31 AM 47.1994 -88.7206 119° Southeast 481 554 33,000  Level Minneapolis Center
Fri 02:40:32 AM 47.1322 -88.5500 120° Southeast 482 555 33,000  Level Minneapolis Center
Fri 02:41:32 AM 47.0633 -88.3800 121° Southeast 483 556 33,000  Level Minneapolis Center
Fri 02:42:33 AM 46.9964 -88.2081 120° Southeast 484 557 33,000  Level Minneapolis Center
Fri 02:43:33 AM 46.9281 -88.0361 120° Southeast 487 560 33,000  Level Minneapolis Center
Fri 02:44:33 AM 46.8592 -87.8650 120° Southeast 488 562 33,000  Level Minneapolis Center
Fri 02:45:34 AM 46.7903 -87.6947 121° Southeast 487 560 33,000 -50 Level Minneapolis Center
Fri 02:46:34 AM 46.7242 -87.5308 120° Southeast 490 564 32,900 -50 Descending Minneapolis Center
Fri 02:47:35 AM 46.6536 -87.3617 121° Southeast 489 563 32,900 50 Level Minneapolis Center
Fri 02:48:35 AM 46.5839 -87.1914 121° Southeast 490 564 33,000  Climbing Minneapolis Center
Fri 02:49:35 AM 46.5136 -87.0208 121° Southeast 492 566 32,900 -50 Descending Minneapolis Center
Fri 02:50:36 AM 46.4422 -86.8506 121° Southeast 494 568 32,900  Level Minneapolis Center
Fri 02:51:36 AM 46.3711 -86.6806 121° Southeast 495 570 32,900 50 Level Minneapolis Center
Fri 02:52:37 AM 46.3136 -86.5444 121° Southeast 496 571 33,000  Climbing Minneapolis Center
Fri 02:53:37 AM 46.2272 -86.3406 121° Southeast 495 570 32,900  Descending Minneapolis Center
Fri 02:54:37 AM 46.1697 -86.2036 121° Southeast 498 573 33,000  Climbing Minneapolis Center
Fri 02:55:38 AM 46.0831 -86.0036 122° Southeast 490 564 32,900  Descending Minneapolis Center
Fri 02:56:38 AM 46.0103 -85.8350 122° Southeast 494 568 33,000 50 Climbing Minneapolis Center
Fri 02:57:39 AM 45.9389 -85.6694 122° Southeast 488 562 33,000  Level Minneapolis Center
Fri 02:58:39 AM 45.8667 -85.5047 122° Southeast 487 560 33,000  Level Minneapolis Center
Fri 03:00:00 AM 45.7881 -85.3255 122° Southeast  Level FlightAware Approximate
Fri 03:02:41 AM 45.5850 -84.8692 122° Southeast 468 539 33,000  Level Minneapolis Center
Fri 03:03:41 AM 45.5144 -84.7122 123° Southeast 468 539 33,000  Level Minneapolis Center
Fri 03:04:41 AM 45.4444 -84.5589 123° Southeast 465 535 33,000  Level Minneapolis Center
Fri 03:05:42 AM 45.3742 -84.4036 123° Southeast 466 536 33,000  Level Minneapolis Center
Fri 03:06:42 AM 45.3031 -84.2472 123° Southeast 469 540 33,000  Level Minneapolis Center
Fri 03:07:00 AM 45.3371 -84.3182 122° Southeast  Level FlightAware Approximate
Fri 03:07:43 AM 45.2317 -84.0928 123° Southeast 468 539 33,000  Level Minneapolis Center
Fri 03:08:43 AM 45.1597 -83.9356 123° Southeast 471 542 33,000  Level Minneapolis Center
Fri 03:09:43 AM 45.0869 -83.7794 123° Southeast 475 547 33,000  Level Minneapolis Center
Fri 03:10:44 AM 45.0158 -83.6250 123° Southeast 471 542 33,000  Level Minneapolis Center
Fri 03:11:44 AM 44.9425 -83.4711 124° Southeast 472 543 33,000  Level Minneapolis Center
Fri 03:12:44 AM 44.8711 -83.3181 123° Southeast 470 541 33,000  Level Minneapolis Center
Fri 03:13:45 AM 44.7994 -83.1669 124° Southeast 467 537 33,000  Level Minneapolis Center
Fri 03:14:45 AM 44.7275 -83.0164 124° Southeast 466 536 33,000  Level Minneapolis Center
Fri 03:15:45 AM 44.6408 -82.8356 124° Southeast 464 534 33,000  Level Minneapolis Center
Fri 03:16:46 AM 44.5708 -82.6869 123° Southeast 461 531 33,000  Level Minneapolis Center
Fri 03:17:46 AM 44.4986 -82.5381 124° Southeast 461 531 33,000  Level Minneapolis Center
Fri 03:18:46 AM 44.4264 -82.3892 124° Southeast 463 533 33,000  Level Minneapolis Center
Fri 03:19:34 AM 44.3500 -82.2667 131° Southeast 460 529 33,000  Level Toronto Center
Fri 03:20:34 AM 44.2667 -82.1167 128° Southeast 460 529 33,000  Level Toronto Center
Fri 03:21:34 AM 44.2000 -81.9833 125° Southeast 460 529 33,000  Level Toronto Center
Fri 03:22:34 AM 44.1333 -81.8167 119° Southeast 460 529 33,000 -850 Level Toronto Center
Fri 03:23:34 AM 44.0667 -81.6667 122° Southeast 450 518 31,300 -2,500 Descending Toronto Center
Fri 03:24:34 AM 44.0000 -81.5333 125° Southeast 450 518 28,000 -3,200 Descending Toronto Center
Fri 03:25:34 AM 43.9167 -81.4167 135° Southeast 440 506 24,900 -3,350 Descending Toronto Center
Fri 03:26:34 AM 43.8500 -81.2667 122° Southeast 440 506 21,300 -3,050 Descending Toronto Center
Fri 03:27:34 AM 43.7667 -81.1333 131° Southeast 430 495 18,800 -2,600 Descending Toronto Center
Fri 03:28:34 AM 43.7000 -81.0167 128° Southeast 410 472 16,100 -2,000 Descending Toronto Center
Fri 03:29:34 AM 43.6333 -80.9000 128° Southeast 380 437 14,800 -1,200 Descending Toronto Center
Fri 03:30:34 AM 43.6000 -80.7833 111° Southeast 350 403 13,700 -1,150 Descending Toronto Center
Fri 03:31:34 AM 43.5333 -80.6833 133° Southeast 340 391 12,500 -1,050 Descending Toronto Center
Fri 03:32:34 AM 43.4833 -80.6000 130° Southeast 340 391 11,600 -1,100 Descending Toronto Center
Fri 03:33:34 AM 43.4333 -80.5000 125° Southeast 300 345 10,300 -1,400 Descending Toronto Center
Fri 03:34:34 AM 43.3833 -80.4167 130° Southeast 280 322 8,800 -1,400 Descending Toronto Center
Fri 03:35:34 AM 43.3333 -80.3500 136° Southeast 270 311 7,500 -1,300 Descending Toronto Center
Fri 03:36:34 AM 43.2833 -80.2500 124° Southeast 260 299 6,200 -1,350 Descending Toronto Center
Fri 03:37:34 AM 43.2500 -80.1833 124° Southeast 250 288 4,800 -1,200 Descending Toronto Center
Fri 03:38:34 AM 43.2167 -80.1167 124° Southeast 230 265 3,800 -1,300 Descending Toronto Center
Fri 03:39:34 AM 43.2000 -80.0167 103° East 210 242 2,200 -1,200 Descending Toronto Center
Fri 03:40:34 AM 43.1833 -79.9833 124° Southeast 160 184 1,400 -700 Descending Toronto Center
Fri 03:41:34 AM 43.1667 -79.9333 115° Southeast 140 161 800 -300 Descending Toronto Center
Fri 03:42:34 AM 43.1667 -79.9000 90° East 30 35 800  Level Toronto Center

Login

Don't have an account? Register now (free) for customized features, flight alerts, and more!